Ben Strafuss — WDH6685 — position and weather

sailwx.info

Track history (hours):
 
Tides and Currents Weather Stations Pressure Air Temp Water Temp Dewpoint Dewpoint Depression Visibility Wind Speed Wind Dir Waves Ship Positions

Ben Strafuss

Owner: Amis, LLC, Harahan, LA. More information available from US FCC via Universal Licensing System and Coast Guard Vessel Documentation Center.

Last reported at 2018-May-21 21:29 UTC. Time now 2018-May-22 10:16 UTC.
Position N 29°43' W 095°01'.

Length 22 m; draft 3 m.

Type: Towing. MMSI: 367640610.

Date/timePositionNaut miles runAvg speedWind from/ knotsBaromVisibWave heightAir tempDewpointWater temp
2018-May-21 21:29N 29°43' W 095°01'3 7.1
2018-May-21 21:00N 29°40' W 094°59'3 6.9
2018-May-21 20:30N 29°37' W 094°58'3 4.7
2018-May-21 19:58N 29°37' W 095°01'0 0.0
2018-May-21 19:25N 29°37' W 095°01'0 0.0
2018-May-21 18:58N 29°37' W 095°01'0 0.0
2018-May-21 18:28N 29°37' W 095°01'0 0.0
2018-May-21 17:58N 29°37' W 095°01'0 0.0
2018-May-21 17:28N 29°37' W 095°01'0 0.0
2018-May-21 16:58N 29°37' W 095°01'0 0.0
2018-May-21 16:28N 29°37' W 095°01'0 0.0
2018-May-21 15:58N 29°37' W 095°01'0 0.0
2018-May-21 15:28N 29°37' W 095°01'0 0.0
2018-May-21 14:58N 29°37' W 095°01'0 0.0
2018-May-21 14:28N 29°37' W 095°01'0 0.0
2018-May-21 13:58N 29°37' W 095°01'0 0.0
2018-May-21 13:28N 29°37' W 095°01'0 0.0
2018-May-21 12:58N 29°37' W 095°01'0 0.0
2018-May-21 12:28N 29°37' W 095°01'0 0.0
2018-May-21 11:58N 29°37' W 095°01'0 0.0
2018-May-21 11:28N 29°37' W 095°01'0 0.0
2018-May-21 10:58N 29°37' W 095°01'0 0.0
2018-May-21 10:28N 29°37' W 095°01'0 0.0
2018-May-21 09:58N 29°37' W 095°01'0 0.0
2018-May-21 09:28N 29°37' W 095°01'0 0.0
2018-May-21 08:58N 29°37' W 095°01'0 0.0
2018-May-21 08:28N 29°37' W 095°01'0 0.0
2018-May-21 07:55N 29°37' W 095°01'0 0.0
2018-May-21 07:28N 29°37' W 095°01'0 0.0
2018-May-21 06:58N 29°37' W 095°01'0 0.0
2018-May-21 06:28N 29°37' W 095°01'0 0.0
2018-May-21 05:55N 29°37' W 095°01'0 0.0
2018-May-21 05:28N 29°37' W 095°01'0 0.0
2018-May-21 04:58N 29°37' W 095°01'0 0.0
2018-May-21 04:28N 29°37' W 095°01'0 0.0
2018-May-21 03:58N 29°37' W 095°01'0 0.0
2018-May-21 03:28N 29°37' W 095°01'0 0.0
2018-May-21 02:58N 29°37' W 095°01'0 0.0
2018-May-21 02:28N 29°37' W 095°01'0 0.0
2018-May-21 01:58N 29°37' W 095°01'0 0.0
2018-May-21 01:28N 29°37' W 095°01'0 0.0
2018-May-21 00:58N 29°37' W 095°01'0 0.0
2018-May-21 00:28N 29°37' W 095°01'0 0.0
2018-May-20 23:58N 29°37' W 095°01'0 0.0
2018-May-20 23:28N 29°37' W 095°01'0 0.0
2018-May-20 22:58N 29°37' W 095°01'0 0.0
2018-May-20 22:28N 29°37' W 095°01'0 0.0
2018-May-20 21:58N 29°37' W 095°01'0 0.0
2018-May-20 21:25N 29°37' W 095°01'0 0.0
2018-May-20 20:58N 29°37' W 095°01'0 0.0
2018-May-20 20:28N 29°37' W 095°01'0 0.0
2018-May-20 19:58N 29°37' W 095°01'2 4.1
2018-May-20 19:30N 29°37' W 094°59'2 4.5
2018-May-20 18:59N 29°39' W 094°58'  
2018-May-18 10:55N 29°44' W 095°03'0 0.0
2018-May-18 10:28N 29°44' W 095°03'0 0.0
2018-May-18 09:58N 29°44' W 095°03'0 0.0
2018-May-18 09:28N 29°44' W 095°03'0 0.0
2018-May-18 08:58N 29°44' W 095°03'0 0.0
2018-May-18 08:25N 29°44' W 095°03'0 0.0
2018-May-18 07:58N 29°44' W 095°03'0 0.0
2018-May-18 07:28N 29°44' W 095°03'0 0.0
2018-May-18 06:58N 29°44' W 095°03'0 0.0
2018-May-18 06:16N 29°44' W 095°03'0 0.0
2018-May-18 05:52N 29°44' W 095°03'0 0.0
2018-May-18 05:25N 29°44' W 095°03'0 0.0
2018-May-18 04:58N 29°44' W 095°03'0 0.0
2018-May-18 04:28N 29°44' W 095°03'0 0.0
2018-May-18 03:52N 29°44' W 095°03'0 0.0
2018-May-18 03:28N 29°44' W 095°03'0 0.0
2018-May-18 02:46N 29°44' W 095°03'0 0.0
2018-May-18 02:28N 29°44' W 095°03'1 0.2
2018-May-17 23:10N 29°44' W 095°02'2 5.1
2018-May-17 22:47N 29°42' W 095°01'2 6.1
2018-May-17 22:30N 29°42' W 094°59'3 6.3
2018-May-17 22:00N 29°39' W 094°58'3 6.6
2018-May-17 21:30N 29°36' W 094°57'3 6.5
2018-May-17 21:00N 29°33' W 094°54'10 6.8
2018-May-17 19:29N 29°24' W 094°49'27 4.7
2018-May-17 13:50N 29°36' W 094°22'3 5.2
2018-May-17 13:17N 29°38' W 094°19'2 5.2
2018-May-17 12:55N 29°39' W 094°17'2 5.4
2018-May-17 12:28N 29°40' W 094°15'3 5.6
2018-May-17 11:53N 29°41' W 094°11'2 5.3
2018-May-17 11:27N 29°42' W 094°09'2 5.6
2018-May-17 11:00N 29°43' W 094°07'3 5.6
2018-May-17 10:30N 29°45' W 094°04'3 5.6
2018-May-17 10:00N 29°47' W 094°02'3 5.3
2018-May-17 09:30N 29°49' W 093°59'3 5.2
2018-May-17 09:00N 29°51' W 093°57'4 7.5
2018-May-17 08:30N 29°54' W 093°55'4 7.5
2018-May-17 08:00N 29°57' W 093°52'2 3.7
2018-May-17 07:28N 29°58' W 093°51'3 6.0
2018-May-17 07:00N 29°59' W 093°48'4 6.6
2018-May-17 06:25N 30°02' W 093°44'2 5.7
2018-May-17 06:00N 30°03' W 093°42'3 5.9
2018-May-17 05:30N 30°04' W 093°39'3 5.4
2018-May-17 04:57N 30°04' W 093°36'2 4.7
2018-May-17 04:29N 30°04' W 093°33'2 4.6
2018-May-17 03:59N 30°04' W 093°30'2 4.5
2018-May-17 03:30N 30°04' W 093°28'2 4.6
2018-May-17 03:00N 30°04' W 093°25'2 4.2
2018-May-17 02:30N 30°04' W 093°23'2 3.1
2018-May-17 02:00N 30°04' W 093°21'1 2.0
2018-May-17 01:29N 30°05' W 093°20'1 2.8
2018-May-17 01:00N 30°06' W 093°20'2 4.9
2018-May-17 00:30N 30°08' W 093°20'2 4.7
2018-May-17 00:00N 30°10' W 093°19'1 1.6
2018-May-16 23:30N 30°11' W 093°18'1 2.0
2018-May-16 22:59N 30°12' W 093°17'2 3.9
2018-May-16 22:30N 30°13' W 093°16'1 1.9
2018-May-16 21:59N 30°14' W 093°16'0 0.1
2018-May-16 21:30N 30°14' W 093°16'0 0.1
2018-May-16 20:59N 30°13' W 093°16'0 0.0
2018-May-16 20:29N 30°13' W 093°16'0 0.0
2018-May-16 19:59N 30°13' W 093°16'0 0.0
2018-May-16 19:29N 30°13' W 093°16'0 0.0
2018-May-16 18:59N 30°13' W 093°16'0 0.0
2018-May-16 18:29N 30°13' W 093°16'0 0.0
2018-May-16 17:59N 30°13' W 093°16'0 0.0
2018-May-16 17:29N 30°13' W 093°16'0 0.0
2018-May-16 16:59N 30°13' W 093°16'0 0.0
2018-May-16 16:29N 30°13' W 093°16'0 0.0
2018-May-16 15:59N 30°13' W 093°16'0 0.0
2018-May-16 15:29N 30°13' W 093°16'0 0.0
2018-May-16 14:59N 30°13' W 093°16'0 0.0
2018-May-16 14:29N 30°13' W 093°16'0 0.0
2018-May-16 13:59N 30°13' W 093°16'0 0.0
2018-May-16 13:29N 30°13' W 093°16'0 0.0
2018-May-16 12:59N 30°13' W 093°16'0 0.0
2018-May-16 12:29N 30°13' W 093°16'0 0.0
2018-May-16 11:56N 30°13' W 093°16'0 0.0
2018-May-16 11:29N 30°13' W 093°16'0 0.0
2018-May-16 10:59N 30°13' W 093°16'0 0.0
2018-May-16 10:29N 30°13' W 093°16'0 0.0
2018-May-16 09:56N 30°13' W 093°16'0 0.0
2018-May-16 09:29N 30°13' W 093°16'0 0.0
2018-May-16 08:59N 30°13' W 093°16'0 0.0
2018-May-16 08:28N 30°13' W 093°16'0 0.0
2018-May-16 07:59N 30°13' W 093°16'0 0.0
2018-May-16 07:29N 30°13' W 093°16'0 0.0
2018-May-16 06:59N 30°13' W 093°16'0 0.0
2018-May-16 06:26N 30°13' W 093°16'0 0.0
2018-May-16 05:59N 30°13' W 093°16'0 0.0
2018-May-16 05:29N 30°13' W 093°16'0 0.0
2018-May-16 04:59N 30°13' W 093°16'0 0.0
2018-May-16 04:28N 30°13' W 093°16'0 0.0
2018-May-16 03:58N 30°13' W 093°16'0 0.0
2018-May-16 03:29N 30°13' W 093°16'0 0.0
2018-May-16 02:59N 30°13' W 093°16'0 0.0
2018-May-16 02:29N 30°13' W 093°16'0 0.0
2018-May-16 01:59N 30°13' W 093°16'0 0.0
2018-May-16 01:28N 30°13' W 093°16'0 0.0
2018-May-16 00:56N 30°13' W 093°16'0 0.0
2018-May-16 00:29N 30°13' W 093°16'0 0.0
2018-May-15 23:59N 30°13' W 093°16'0 0.0
2018-May-15 23:26N 30°13' W 093°16'0 0.0
2018-May-15 22:58N 30°13' W 093°16'0 0.0
2018-May-15 22:28N 30°13' W 093°16'0 0.0
2018-May-15 21:59N 30°13' W 093°16'0 0.0
2018-May-15 21:28N 30°13' W 093°16'0 0.0
2018-May-15 20:59N 30°13' W 093°16'0 0.0
2018-May-15 20:28N 30°13' W 093°16'0 0.0
2018-May-15 19:58N 30°13' W 093°16'0 0.0
2018-May-15 19:29N 30°13' W 093°16'0 0.0
2018-May-15 18:55N 30°13' W 093°16'0 0.0
2018-May-15 18:29N 30°13' W 093°16'0 0.0
2018-May-15 17:59N 30°13' W 093°16'0 0.0
2018-May-15 17:28N 30°13' W 093°16'0 0.0
2018-May-15 16:59N 30°13' W 093°16'0 0.0
2018-May-15 16:28N 30°13' W 093°16'0 0.0
2018-May-15 15:58N 30°13' W 093°16'0 0.0
2018-May-15 15:28N 30°13' W 093°16'0 0.0
2018-May-15 14:58N 30°13' W 093°16'0 0.0
2018-May-15 14:28N 30°13' W 093°16'0 0.0
2018-May-15 13:58N 30°13' W 093°16'0 0.0
2018-May-15 13:28N 30°13' W 093°16'0 0.0
2018-May-15 12:58N 30°13' W 093°16'0 0.0
2018-May-15 12:28N 30°13' W 093°16'0 0.0
2018-May-15 11:58N 30°13' W 093°16'0 0.0
2018-May-15 11:28N 30°13' W 093°16'0 0.0
2018-May-15 10:55N 30°13' W 093°16'0 0.0
2018-May-15 10:28N 30°13' W 093°16'0 0.0
2018-May-15 09:53N 30°13' W 093°16'0 0.0
2018-May-15 09:28N 30°13' W 093°16'0 0.0
2018-May-15 08:58N 30°13' W 093°16'0 0.0
2018-May-15 08:25N 30°13' W 093°16'0 0.0
2018-May-15 07:58N 30°13' W 093°16'0 0.0
2018-May-15 07:28N 30°13' W 093°16'0 0.0
2018-May-15 06:52N 30°13' W 093°16'0 0.0
2018-May-15 06:28N 30°13' W 093°16'0 0.0
2018-May-15 05:58N 30°13' W 093°16'0 0.0
2018-May-15 05:28N 30°13' W 093°16'0 0.0
2018-May-15 04:58N 30°13' W 093°16'0 0.0
2018-May-15 04:28N 30°13' W 093°16'0 0.0
2018-May-15 03:58N 30°13' W 093°16'0 0.0
2018-May-15 03:28N 30°13' W 093°16'0 0.0
2018-May-15 02:55N 30°13' W 093°16'0 0.0
2018-May-15 02:25N 30°13' W 093°16'0 0.0
2018-May-15 01:58N 30°13' W 093°16'0 0.0
2018-May-15 01:28N 30°13' W 093°16'0 0.0
2018-May-15 00:58N 30°13' W 093°16'0 0.0
2018-May-15 00:28N 30°13' W 093°16'0 0.0
2018-May-14 23:58N 30°13' W 093°16'0 0.0
2018-May-14 23:28N 30°13' W 093°16'0 0.0
2018-May-14 22:58N 30°13' W 093°16'0 0.0
2018-May-14 22:28N 30°13' W 093°16'0 0.0
2018-May-14 21:58N 30°13' W 093°16'0 0.0
2018-May-14 21:28N 30°13' W 093°16'0 0.0
2018-May-14 20:58N 30°13' W 093°16'0 0.2
2018-May-14 20:28N 30°14' W 093°16'0 0.1
2018-May-14 19:55N 30°14' W 093°16'0 0.5
2018-May-14 19:30N 30°14' W 093°16'0 0.3
2018-May-14 18:56N 30°14' W 093°15'0 0.0
2018-May-14 18:29N 30°14' W 093°15'0 0.0
2018-May-14 17:59N 30°14' W 093°15'0 0.0
2018-May-14 17:05N 30°14' W 093°15'0 0.0
2018-May-14 16:59N 30°14' W 093°15'0 0.0
2018-May-14 16:29N 30°14' W 093°15'0 0.0
2018-May-14 15:59N 30°14' W 093°15'0 0.0
2018-May-14 15:29N 30°14' W 093°15'0 0.0
2018-May-14 14:59N 30°14' W 093°15'0 0.0
2018-May-14 14:29N 30°14' W 093°15'0 0.0
2018-May-14 13:59N 30°14' W 093°15'0 0.0
2018-May-14 13:29N 30°14' W 093°15'0 0.0
2018-May-14 12:53N 30°14' W 093°15'0 0.0
2018-May-14 12:26N 30°14' W 093°15'0 0.0
2018-May-14 11:53N 30°14' W 093°15'0 0.0
2018-May-14 11:26N 30°14' W 093°15'0 0.0
2018-May-14 10:56N 30°14' W 093°15'0 0.0
2018-May-14 10:29N 30°14' W 093°15'0 0.0
2018-May-14 09:59N 30°14' W 093°15'0 0.0
2018-May-14 09:29N 30°14' W 093°15'0 0.0
2018-May-14 08:59N 30°14' W 093°15'0 0.0
2018-May-14 08:29N 30°14' W 093°15'0 0.0
2018-May-14 07:59N 30°14' W 093°15'0 0.0
2018-May-14 07:29N 30°14' W 093°15'0 0.0
2018-May-14 06:59N 30°14' W 093°15'0 0.1
2018-May-14 06:29N 30°14' W 093°15'1 1.5
2018-May-14 06:00N 30°13' W 093°16'2 3.9
2018-May-14 05:30N 30°12' W 093°17'3 6.4
2018-May-14 05:00N 30°09' W 093°20'3 5.2
2018-May-14 04:30N 30°07' W 093°20'2 3.3
2018-May-14 04:00N 30°05' W 093°20'0 0.0
2018-May-14 03:30N 30°05' W 093°20'0 0.0
2018-May-14 03:00N 30°05' W 093°20'0 0.0
2018-May-14 02:30N 30°05' W 093°20'0 0.0
2018-May-14 02:00N 30°05' W 093°20'0 0.0
2018-May-14 01:30N 30°05' W 093°20'0 0.0
2018-May-14 01:00N 30°05' W 093°20'0 0.0
2018-May-14 00:30N 30°05' W 093°20'0 0.0
2018-May-14 00:00N 30°05' W 093°20'0 0.0
2018-May-13 23:30N 30°05' W 093°20'0 0.0
2018-May-13 23:00N 30°05' W 093°20'0 0.0
2018-May-13 22:30N 30°05' W 093°20'0 0.0
2018-May-13 22:00N 30°05' W 093°20'0 0.0
2018-May-13 21:30N 30°05' W 093°20'0 0.0
2018-May-13 21:00N 30°05' W 093°20'0 0.0
2018-May-13 20:30N 30°05' W 093°20'0 0.0
2018-May-13 20:00N 30°05' W 093°20'0 0.0
2018-May-13 19:30N 30°05' W 093°20'0 0.0
2018-May-13 19:00N 30°05' W 093°20'0 0.0
2018-May-13 18:27N 30°05' W 093°20'0 0.0
2018-May-13 18:00N 30°05' W 093°20'0 0.0
2018-May-13 17:30N 30°05' W 093°20'0 0.0
2018-May-13 17:00N 30°05' W 093°20'0 0.0
2018-May-13 16:30N 30°05' W 093°20'0 0.0
2018-May-13 16:00N 30°05' W 093°20'0 0.0
2018-May-13 15:30N 30°05' W 093°20'0 0.0
2018-May-13 15:00N 30°05' W 093°20'0 0.0
2018-May-13 14:30N 30°05' W 093°20'0 0.0
2018-May-13 13:59N 30°05' W 093°20'0 0.0
2018-May-13 13:30N 30°05' W 093°20'0 0.0
2018-May-13 13:00N 30°05' W 093°20'0 0.0
2018-May-13 12:30N 30°05' W 093°20'0 0.0
2018-May-13 12:00N 30°05' W 093°20'0 0.0
2018-May-13 11:30N 30°05' W 093°20'0 0.0
2018-May-13 11:00N 30°05' W 093°20'0 0.0
2018-May-13 10:29N 30°05' W 093°20'0 0.0
2018-May-13 10:00N 30°05' W 093°20'0 0.0
2018-May-13 09:30N 30°05' W 093°20'0 0.0
2018-May-13 09:00N 30°05' W 093°20'0 0.0
2018-May-13 08:30N 30°05' W 093°20'0 0.0
2018-May-13 08:00N 30°05' W 093°20'0 0.0
2018-May-13 07:30N 30°05' W 093°20'0 0.0
2018-May-13 07:00N 30°05' W 093°20'0 0.0
2018-May-13 06:30N 30°05' W 093°20'0 0.0
2018-May-13 05:56N 30°05' W 093°20'0 0.0
2018-May-13 05:30N 30°05' W 093°20'0 0.0
2018-May-13 05:00N 30°05' W 093°20'0 0.0
2018-May-13 04:30N 30°05' W 093°20'0 0.0
2018-May-13 04:00N 30°05' W 093°20'0 0.0
2018-May-13 03:30N 30°05' W 093°20'0 0.0
2018-May-13 03:00N 30°05' W 093°20'0 0.0
2018-May-13 02:30N 30°05' W 093°20'0 0.0
2018-May-13 02:00N 30°05' W 093°20'0 0.0
2018-May-13 01:29N 30°05' W 093°20'0 0.0
2018-May-13 01:00N 30°05' W 093°20'0 0.0
2018-May-13 00:30N 30°05' W 093°20'0 0.0
2018-May-13 00:00N 30°05' W 093°20'0 0.0
2018-May-12 23:29N 30°05' W 093°20'0 0.0
2018-May-12 22:59N 30°05' W 093°20'0 0.0
2018-May-12 22:29N 30°05' W 093°20'0 0.0
2018-May-12 22:00N 30°05' W 093°20'0 0.0
2018-May-12 21:30N 30°05' W 093°20'0 0.0
2018-May-12 21:00N 30°05' W 093°20'0 0.0
2018-May-12 20:30N 30°05' W 093°20'0 0.0
2018-May-12 20:00N 30°05' W 093°20'0 0.0
2018-May-12 19:29N 30°05' W 093°20'0 0.0
2018-May-12 18:59N 30°05' W 093°20'0 0.0
2018-May-12 18:29N 30°05' W 093°20'0 0.0
2018-May-12 18:00N 30°05' W 093°20'0 0.0
2018-May-12 17:29N 30°05' W 093°20'0 0.0
2018-May-12 16:59N 30°05' W 093°20'0 0.0
2018-May-12 16:30N 30°05' W 093°20'0 0.0
2018-May-12 16:00N 30°05' W 093°20'0 0.0
2018-May-12 15:30N 30°05' W 093°20'0 0.0
2018-May-12 14:59N 30°05' W 093°20'0 0.0
2018-May-12 14:30N 30°05' W 093°20'0 0.0
2018-May-12 13:59N 30°05' W 093°20'0 0.0
2018-May-12 13:30N 30°05' W 093°20'0 0.0
2018-May-12 12:59N 30°05' W 093°20'0 0.0
2018-May-12 12:26N 30°05' W 093°20'0 0.0
2018-May-12 11:59N 30°05' W 093°20'0 0.0
2018-May-12 11:29N 30°05' W 093°20'0 0.0
2018-May-12 10:38N 30°05' W 093°20'0 0.0
2018-May-12 10:23N 30°05' W 093°20'0 0.0
2018-May-12 09:50N 30°05' W 093°20'0 0.0
2018-May-12 09:26N 30°05' W 093°20'0 0.0
2018-May-12 08:59N 30°05' W 093°20'0 0.0
2018-May-12 08:26N 30°05' W 093°20'0 0.0
2018-May-12 07:59N 30°05' W 093°20'0 0.0
2018-May-12 07:29N 30°05' W 093°20'0 0.0
2018-May-12 06:59N 30°05' W 093°20'0 0.0
2018-May-12 06:30N 30°05' W 093°20'0 0.0
2018-May-12 05:56N 30°05' W 093°20'0 0.0
2018-May-12 05:29N 30°05' W 093°20'0 0.0
2018-May-12 04:59N 30°05' W 093°20'0 0.0
2018-May-12 04:29N 30°05' W 093°20'0 0.0
2018-May-12 03:59N 30°05' W 093°20'0 0.0
2018-May-12 03:29N 30°05' W 093°20'0 0.0
2018-May-12 02:59N 30°05' W 093°20'0 0.0
2018-May-12 02:29N 30°05' W 093°20'0 0.0
2018-May-12 01:59N 30°05' W 093°20'0 0.0
2018-May-12 01:29N 30°05' W 093°20'0 0.0
2018-May-12 00:56N 30°05' W 093°20'0 0.0
2018-May-12 00:26N 30°05' W 093°20'0 0.0
2018-May-11 23:59N 30°05' W 093°20'1 3.0
2018-May-11 23:30N 30°06' W 093°19'0 0.5
2018-May-11 23:00N 30°06' W 093°18'0 0.0
2018-May-11 22:30N 30°06' W 093°18'0 0.0
2018-May-11 22:00N 30°06' W 093°18'1 1.8
2018-May-11 21:30N 30°06' W 093°19'  
Track history (hours):
 
Tides and Currents Weather Stations Pressure Air Temp Water Temp Dewpoint Dewpoint Depression Visibility Wind Speed Wind Dir Waves Ship Positions

Ben Strafuss

Owner: Amis, LLC, Harahan, LA. More information available from US FCC via Universal Licensing System and Coast Guard Vessel Documentation Center.

Last reported at 2018-May-21 21:29 UTC. Time now 2018-May-22 10:16 UTC.
Position N 29°43' W 095°01'.

Length 22 m; draft 3 m.

Type: Towing. MMSI: 367640610.

Date/timePositionNaut miles runAvg speedWind from/ knotsBaromVisibWave heightAir tempDewpointWater temp
2018-May-21 21:29N 29°43' W 095°01'3 7.1
2018-May-21 21:00N 29°40' W 094°59'3 6.9
2018-May-21 20:30N 29°37' W 094°58'3 4.7
2018-May-21 19:58N 29°37' W 095°01'0 0.0
2018-May-21 19:25N 29°37' W 095°01'0 0.0
2018-May-21 18:58N 29°37' W 095°01'0 0.0
2018-May-21 18:28N 29°37' W 095°01'0 0.0
2018-May-21 17:58N 29°37' W 095°01'0 0.0
2018-May-21 17:28N 29°37' W 095°01'0 0.0
2018-May-21 16:58N 29°37' W 095°01'0 0.0
2018-May-21 16:28N 29°37' W 095°01'0 0.0
2018-May-21 15:58N 29°37' W 095°01'0 0.0
2018-May-21 15:28N 29°37' W 095°01'0 0.0
2018-May-21 14:58N 29°37' W 095°01'0 0.0
2018-May-21 14:28N 29°37' W 095°01'0 0.0
2018-May-21 13:58N 29°37' W 095°01'0 0.0
2018-May-21 13:28N 29°37' W 095°01'0 0.0
2018-May-21 12:58N 29°37' W 095°01'0 0.0
2018-May-21 12:28N 29°37' W 095°01'0 0.0
2018-May-21 11:58N 29°37' W 095°01'0 0.0
2018-May-21 11:28N 29°37' W 095°01'0 0.0
2018-May-21 10:58N 29°37' W 095°01'0 0.0
2018-May-21 10:28N 29°37' W 095°01'0 0.0
2018-May-21 09:58N 29°37' W 095°01'0 0.0
2018-May-21 09:28N 29°37' W 095°01'0 0.0
2018-May-21 08:58N 29°37' W 095°01'0 0.0
2018-May-21 08:28N 29°37' W 095°01'0 0.0
2018-May-21 07:55N 29°37' W 095°01'0 0.0
2018-May-21 07:28N 29°37' W 095°01'0 0.0
2018-May-21 06:58N 29°37' W 095°01'0 0.0
2018-May-21 06:28N 29°37' W 095°01'0 0.0
2018-May-21 05:55N 29°37' W 095°01'0 0.0
2018-May-21 05:28N 29°37' W 095°01'0 0.0
2018-May-21 04:58N 29°37' W 095°01'0 0.0
2018-May-21 04:28N 29°37' W 095°01'0 0.0
2018-May-21 03:58N 29°37' W 095°01'0 0.0
2018-May-21 03:28N 29°37' W 095°01'0 0.0
2018-May-21 02:58N 29°37' W 095°01'0 0.0
2018-May-21 02:28N 29°37' W 095°01'0 0.0
2018-May-21 01:58N 29°37' W 095°01'0 0.0
2018-May-21 01:28N 29°37' W 095°01'0 0.0
2018-May-21 00:58N 29°37' W 095°01'0 0.0
2018-May-21 00:28N 29°37' W 095°01'0 0.0
2018-May-20 23:58N 29°37' W 095°01'0 0.0
2018-May-20 23:28N 29°37' W 095°01'0 0.0
2018-May-20 22:58N 29°37' W 095°01'0 0.0
2018-May-20 22:28N 29°37' W 095°01'0 0.0
2018-May-20 21:58N 29°37' W 095°01'0 0.0
2018-May-20 21:25N 29°37' W 095°01'0 0.0
2018-May-20 20:58N 29°37' W 095°01'0 0.0
2018-May-20 20:28N 29°37' W 095°01'0 0.0
2018-May-20 19:58N 29°37' W 095°01'2 4.1
2018-May-20 19:30N 29°37' W 094°59'2 4.5
2018-May-20 18:59N 29°39' W 094°58'  
2018-May-18 10:55N 29°44' W 095°03'0 0.0
2018-May-18 10:28N 29°44' W 095°03'0 0.0
2018-May-18 09:58N 29°44' W 095°03'0 0.0
2018-May-18 09:28N 29°44' W 095°03'0 0.0
2018-May-18 08:58N 29°44' W 095°03'0 0.0
2018-May-18 08:25N 29°44' W 095°03'0 0.0
2018-May-18 07:58N 29°44' W 095°03'0 0.0
2018-May-18 07:28N 29°44' W 095°03'0 0.0
2018-May-18 06:58N 29°44' W 095°03'0 0.0
2018-May-18 06:16N 29°44' W 095°03'0 0.0
2018-May-18 05:52N 29°44' W 095°03'0 0.0
2018-May-18 05:25N 29°44' W 095°03'0 0.0
2018-May-18 04:58N 29°44' W 095°03'0 0.0
2018-May-18 04:28N 29°44' W 095°03'0 0.0
2018-May-18 03:52N 29°44' W 095°03'0 0.0
2018-May-18 03:28N 29°44' W 095°03'0 0.0
2018-May-18 02:46N 29°44' W 095°03'0 0.0
2018-May-18 02:28N 29°44' W 095°03'1 0.2
2018-May-17 23:10N 29°44' W 095°02'2 5.1
2018-May-17 22:47N 29°42' W 095°01'2 6.1
2018-May-17 22:30N 29°42' W 094°59'3 6.3
2018-May-17 22:00N 29°39' W 094°58'3 6.6
2018-May-17 21:30N 29°36' W 094°57'3 6.5
2018-May-17 21:00N 29°33' W 094°54'10 6.8
2018-May-17 19:29N 29°24' W 094°49'27 4.7
2018-May-17 13:50N 29°36' W 094°22'3 5.2
2018-May-17 13:17N 29°38' W 094°19'2 5.2
2018-May-17 12:55N 29°39' W 094°17'2 5.4
2018-May-17 12:28N 29°40' W 094°15'3 5.6
2018-May-17 11:53N 29°41' W 094°11'2 5.3
2018-May-17 11:27N 29°42' W 094°09'2 5.6
2018-May-17 11:00N 29°43' W 094°07'3 5.6
2018-May-17 10:30N 29°45' W 094°04'3 5.6
2018-May-17 10:00N 29°47' W 094°02'3 5.3
2018-May-17 09:30N 29°49' W 093°59'3 5.2
2018-May-17 09:00N 29°51' W 093°57'4 7.5
2018-May-17 08:30N 29°54' W 093°55'4 7.5
2018-May-17 08:00N 29°57' W 093°52'2 3.7
2018-May-17 07:28N 29°58' W 093°51'3 6.0
2018-May-17 07:00N 29°59' W 093°48'4 6.6
2018-May-17 06:25N 30°02' W 093°44'2 5.7
2018-May-17 06:00N 30°03' W 093°42'3 5.9
2018-May-17 05:30N 30°04' W 093°39'3 5.4
2018-May-17 04:57N 30°04' W 093°36'2 4.7
2018-May-17 04:29N 30°04' W 093°33'2 4.6
2018-May-17 03:59N 30°04' W 093°30'2 4.5
2018-May-17 03:30N 30°04' W 093°28'2 4.6
2018-May-17 03:00N 30°04' W 093°25'2 4.2
2018-May-17 02:30N 30°04' W 093°23'2 3.1
2018-May-17 02:00N 30°04' W 093°21'1 2.0
2018-May-17 01:29N 30°05' W 093°20'1 2.8
2018-May-17 01:00N 30°06' W 093°20'2 4.9
2018-May-17 00:30N 30°08' W 093°20'2 4.7
2018-May-17 00:00N 30°10' W 093°19'1 1.6
2018-May-16 23:30N 30°11' W 093°18'1 2.0
2018-May-16 22:59N 30°12' W 093°17'2 3.9
2018-May-16 22:30N 30°13' W 093°16'1 1.9
2018-May-16 21:59N 30°14' W 093°16'0 0.1
2018-May-16 21:30N 30°14' W 093°16'0 0.1
2018-May-16 20:59N 30°13' W 093°16'0 0.0
2018-May-16 20:29N 30°13' W 093°16'0 0.0
2018-May-16 19:59N 30°13' W 093°16'0 0.0
2018-May-16 19:29N 30°13' W 093°16'0 0.0
2018-May-16 18:59N 30°13' W 093°16'0 0.0
2018-May-16 18:29N 30°13' W 093°16'0 0.0
2018-May-16 17:59N 30°13' W 093°16'0 0.0
2018-May-16 17:29N 30°13' W 093°16'0 0.0
2018-May-16 16:59N 30°13' W 093°16'0 0.0
2018-May-16 16:29N 30°13' W 093°16'0 0.0
2018-May-16 15:59N 30°13' W 093°16'0 0.0
2018-May-16 15:29N 30°13' W 093°16'0 0.0
2018-May-16 14:59N 30°13' W 093°16'0 0.0
2018-May-16 14:29N 30°13' W 093°16'0 0.0
2018-May-16 13:59N 30°13' W 093°16'0 0.0
2018-May-16 13:29N 30°13' W 093°16'0 0.0
2018-May-16 12:59N 30°13' W 093°16'0 0.0
2018-May-16 12:29N 30°13' W 093°16'0 0.0
2018-May-16 11:56N 30°13' W 093°16'0 0.0
2018-May-16 11:29N 30°13' W 093°16'0 0.0
2018-May-16 10:59N 30°13' W 093°16'0 0.0
2018-May-16 10:29N 30°13' W 093°16'0 0.0
2018-May-16 09:56N 30°13' W 093°16'0 0.0
2018-May-16 09:29N 30°13' W 093°16'0 0.0
2018-May-16 08:59N 30°13' W 093°16'0 0.0
2018-May-16 08:28N 30°13' W 093°16'0 0.0
2018-May-16 07:59N 30°13' W 093°16'0 0.0
2018-May-16 07:29N 30°13' W 093°16'0 0.0
2018-May-16 06:59N 30°13' W 093°16'0 0.0
2018-May-16 06:26N 30°13' W 093°16'0 0.0
2018-May-16 05:59N 30°13' W 093°16'0 0.0
2018-May-16 05:29N 30°13' W 093°16'0 0.0
2018-May-16 04:59N 30°13' W 093°16'0 0.0
2018-May-16 04:28N 30°13' W 093°16'0 0.0
2018-May-16 03:58N 30°13' W 093°16'0 0.0
2018-May-16 03:29N 30°13' W 093°16'0 0.0
2018-May-16 02:59N 30°13' W 093°16'0 0.0
2018-May-16 02:29N 30°13' W 093°16'0 0.0
2018-May-16 01:59N 30°13' W 093°16'0 0.0
2018-May-16 01:28N 30°13' W 093°16'0 0.0
2018-May-16 00:56N 30°13' W 093°16'0 0.0
2018-May-16 00:29N 30°13' W 093°16'0 0.0
2018-May-15 23:59N 30°13' W 093°16'0 0.0
2018-May-15 23:26N 30°13' W 093°16'0 0.0
2018-May-15 22:58N 30°13' W 093°16'0 0.0
2018-May-15 22:28N 30°13' W 093°16'0 0.0
2018-May-15 21:59N 30°13' W 093°16'0 0.0
2018-May-15 21:28N 30°13' W 093°16'0 0.0
2018-May-15 20:59N 30°13' W 093°16'0 0.0
2018-May-15 20:28N 30°13' W 093°16'0 0.0
2018-May-15 19:58N 30°13' W 093°16'0 0.0
2018-May-15 19:29N 30°13' W 093°16'0 0.0
2018-May-15 18:55N 30°13' W 093°16'0 0.0
2018-May-15 18:29N 30°13' W 093°16'0 0.0
2018-May-15 17:59N 30°13' W 093°16'0 0.0
2018-May-15 17:28N 30°13' W 093°16'0 0.0
2018-May-15 16:59N 30°13' W 093°16'0 0.0
2018-May-15 16:28N 30°13' W 093°16'0 0.0
2018-May-15 15:58N 30°13' W 093°16'0 0.0
2018-May-15 15:28N 30°13' W 093°16'0 0.0
2018-May-15 14:58N 30°13' W 093°16'0 0.0
2018-May-15 14:28N 30°13' W 093°16'0 0.0
2018-May-15 13:58N 30°13' W 093°16'0 0.0
2018-May-15 13:28N 30°13' W 093°16'0 0.0
2018-May-15 12:58N 30°13' W 093°16'0 0.0
2018-May-15 12:28N 30°13' W 093°16'0 0.0
2018-May-15 11:58N 30°13' W 093°16'0 0.0
2018-May-15 11:28N 30°13' W 093°16'0 0.0
2018-May-15 10:55N 30°13' W 093°16'0 0.0
2018-May-15 10:28N 30°13' W 093°16'0 0.0
2018-May-15 09:53N 30°13' W 093°16'0 0.0
2018-May-15 09:28N 30°13' W 093°16'0 0.0
2018-May-15 08:58N 30°13' W 093°16'0 0.0
2018-May-15 08:25N 30°13' W 093°16'0 0.0
2018-May-15 07:58N 30°13' W 093°16'0 0.0
2018-May-15 07:28N 30°13' W 093°16'0 0.0
2018-May-15 06:52N 30°13' W 093°16'0 0.0
2018-May-15 06:28N 30°13' W 093°16'0 0.0
2018-May-15 05:58N 30°13' W 093°16'0 0.0
2018-May-15 05:28N 30°13' W 093°16'0 0.0
2018-May-15 04:58N 30°13' W 093°16'0 0.0
2018-May-15 04:28N 30°13' W 093°16'0 0.0
2018-May-15 03:58N 30°13' W 093°16'0 0.0
2018-May-15 03:28N 30°13' W 093°16'0 0.0
2018-May-15 02:55N 30°13' W 093°16'0 0.0
2018-May-15 02:25N 30°13' W 093°16'0 0.0
2018-May-15 01:58N 30°13' W 093°16'0 0.0
2018-May-15 01:28N 30°13' W 093°16'0 0.0
2018-May-15 00:58N 30°13' W 093°16'0 0.0
2018-May-15 00:28N 30°13' W 093°16'0 0.0
2018-May-14 23:58N 30°13' W 093°16'0 0.0
2018-May-14 23:28N 30°13' W 093°16'0 0.0
2018-May-14 22:58N 30°13' W 093°16'0 0.0
2018-May-14 22:28N 30°13' W 093°16'0 0.0
2018-May-14 21:58N 30°13' W 093°16'0 0.0
2018-May-14 21:28N 30°13' W 093°16'0 0.0
2018-May-14 20:58N 30°13' W 093°16'0 0.2
2018-May-14 20:28N 30°14' W 093°16'0 0.1
2018-May-14 19:55N 30°14' W 093°16'0 0.5
2018-May-14 19:30N 30°14' W 093°16'0 0.3
2018-May-14 18:56N 30°14' W 093°15'0 0.0
2018-May-14 18:29N 30°14' W 093°15'0 0.0
2018-May-14 17:59N 30°14' W 093°15'0 0.0
2018-May-14 17:05N 30°14' W 093°15'0 0.0
2018-May-14 16:59N 30°14' W 093°15'0 0.0
2018-May-14 16:29N 30°14' W 093°15'0 0.0
2018-May-14 15:59N 30°14' W 093°15'0 0.0
2018-May-14 15:29N 30°14' W 093°15'0 0.0
2018-May-14 14:59N 30°14' W 093°15'0 0.0
2018-May-14 14:29N 30°14' W 093°15'0 0.0
2018-May-14 13:59N 30°14' W 093°15'0 0.0
2018-May-14 13:29N 30°14' W 093°15'0 0.0
2018-May-14 12:53N 30°14' W 093°15'0 0.0
2018-May-14 12:26N 30°14' W 093°15'0 0.0
2018-May-14 11:53N 30°14' W 093°15'0 0.0
2018-May-14 11:26N 30°14' W 093°15'0 0.0
2018-May-14 10:56N 30°14' W 093°15'0 0.0
2018-May-14 10:29N 30°14' W 093°15'0 0.0
2018-May-14 09:59N 30°14' W 093°15'0 0.0
2018-May-14 09:29N 30°14' W 093°15'0 0.0
2018-May-14 08:59N 30°14' W 093°15'0 0.0
2018-May-14 08:29N 30°14' W 093°15'0 0.0
2018-May-14 07:59N 30°14' W 093°15'0 0.0
2018-May-14 07:29N 30°14' W 093°15'0 0.0
2018-May-14 06:59N 30°14' W 093°15'0 0.1
2018-May-14 06:29N 30°14' W 093°15'1 1.5
2018-May-14 06:00N 30°13' W 093°16'2 3.9
2018-May-14 05:30N 30°12' W 093°17'3 6.4
2018-May-14 05:00N 30°09' W 093°20'3 5.2
2018-May-14 04:30N 30°07' W 093°20'2 3.3
2018-May-14 04:00N 30°05' W 093°20'0 0.0
2018-May-14 03:30N 30°05' W 093°20'0 0.0
2018-May-14 03:00N 30°05' W 093°20'0 0.0
2018-May-14 02:30N 30°05' W 093°20'0 0.0
2018-May-14 02:00N 30°05' W 093°20'0 0.0
2018-May-14 01:30N 30°05' W 093°20'0 0.0
2018-May-14 01:00N 30°05' W 093°20'0 0.0
2018-May-14 00:30N 30°05' W 093°20'0 0.0
2018-May-14 00:00N 30°05' W 093°20'0 0.0
2018-May-13 23:30N 30°05' W 093°20'0 0.0
2018-May-13 23:00N 30°05' W 093°20'0 0.0
2018-May-13 22:30N 30°05' W 093°20'0 0.0
2018-May-13 22:00N 30°05' W 093°20'0 0.0
2018-May-13 21:30N 30°05' W 093°20'0 0.0
2018-May-13 21:00N 30°05' W 093°20'0 0.0
2018-May-13 20:30N 30°05' W 093°20'0 0.0
2018-May-13 20:00N 30°05' W 093°20'0 0.0
2018-May-13 19:30N 30°05' W 093°20'0 0.0
2018-May-13 19:00N 30°05' W 093°20'0 0.0
2018-May-13 18:27N 30°05' W 093°20'0 0.0
2018-May-13 18:00N 30°05' W 093°20'0 0.0
2018-May-13 17:30N 30°05' W 093°20'0 0.0
2018-May-13 17:00N 30°05' W 093°20'0 0.0
2018-May-13 16:30N 30°05' W 093°20'0 0.0
2018-May-13 16:00N 30°05' W 093°20'0 0.0
2018-May-13 15:30N 30°05' W 093°20'0 0.0
2018-May-13 15:00N 30°05' W 093°20'0 0.0
2018-May-13 14:30N 30°05' W 093°20'0 0.0
2018-May-13 13:59N 30°05' W 093°20'0 0.0
2018-May-13 13:30N 30°05' W 093°20'0 0.0
2018-May-13 13:00N 30°05' W 093°20'0 0.0
2018-May-13 12:30N 30°05' W 093°20'0 0.0
2018-May-13 12:00N 30°05' W 093°20'0 0.0
2018-May-13 11:30N 30°05' W 093°20'0 0.0
2018-May-13 11:00N 30°05' W 093°20'0 0.0
2018-May-13 10:29N 30°05' W 093°20'0 0.0
2018-May-13 10:00N 30°05' W 093°20'0 0.0
2018-May-13 09:30N 30°05' W 093°20'0 0.0
2018-May-13 09:00N 30°05' W 093°20'0 0.0
2018-May-13 08:30N 30°05' W 093°20'0 0.0
2018-May-13 08:00N 30°05' W 093°20'0 0.0
2018-May-13 07:30N 30°05' W 093°20'0 0.0
2018-May-13 07:00N 30°05' W 093°20'0 0.0
2018-May-13 06:30N 30°05' W 093°20'0 0.0
2018-May-13 05:56N 30°05' W 093°20'0 0.0
2018-May-13 05:30N 30°05' W 093°20'0 0.0
2018-May-13 05:00N 30°05' W 093°20'0 0.0
2018-May-13 04:30N 30°05' W 093°20'0 0.0
2018-May-13 04:00N 30°05' W 093°20'0 0.0
2018-May-13 03:30N 30°05' W 093°20'0 0.0
2018-May-13 03:00N 30°05' W 093°20'0 0.0
2018-May-13 02:30N 30°05' W 093°20'0 0.0
2018-May-13 02:00N 30°05' W 093°20'0 0.0
2018-May-13 01:29N 30°05' W 093°20'0 0.0
2018-May-13 01:00N 30°05' W 093°20'0 0.0
2018-May-13 00:30N 30°05' W 093°20'0 0.0
2018-May-13 00:00N 30°05' W 093°20'0 0.0
2018-May-12 23:29N 30°05' W 093°20'0 0.0
2018-May-12 22:59N 30°05' W 093°20'0 0.0
2018-May-12 22:29N 30°05' W 093°20'0 0.0
2018-May-12 22:00N 30°05' W 093°20'0 0.0
2018-May-12 21:30N 30°05' W 093°20'0 0.0
2018-May-12 21:00N 30°05' W 093°20'0 0.0
2018-May-12 20:30N 30°05' W 093°20'0 0.0
2018-May-12 20:00N 30°05' W 093°20'0 0.0
2018-May-12 19:29N 30°05' W 093°20'0 0.0
2018-May-12 18:59N 30°05' W 093°20'0 0.0
2018-May-12 18:29N 30°05' W 093°20'0 0.0
2018-May-12 18:00N 30°05' W 093°20'0 0.0
2018-May-12 17:29N 30°05' W 093°20'0 0.0
2018-May-12 16:59N 30°05' W 093°20'0 0.0
2018-May-12 16:30N 30°05' W 093°20'0 0.0
2018-May-12 16:00N 30°05' W 093°20'0 0.0
2018-May-12 15:30N 30°05' W 093°20'0 0.0
2018-May-12 14:59N 30°05' W 093°20'0 0.0
2018-May-12 14:30N 30°05' W 093°20'0 0.0
2018-May-12 13:59N 30°05' W 093°20'0 0.0
2018-May-12 13:30N 30°05' W 093°20'0 0.0
2018-May-12 12:59N 30°05' W 093°20'0 0.0
2018-May-12 12:26N 30°05' W 093°20'0 0.0
2018-May-12 11:59N 30°05' W 093°20'0 0.0
2018-May-12 11:29N 30°05' W 093°20'0 0.0
2018-May-12 10:38N 30°05' W 093°20'0 0.0
2018-May-12 10:23N 30°05' W 093°20'0 0.0
2018-May-12 09:50N 30°05' W 093°20'0 0.0
2018-May-12 09:26N 30°05' W 093°20'0 0.0
2018-May-12 08:59N 30°05' W 093°20'0 0.0
2018-May-12 08:26N 30°05' W 093°20'0 0.0
2018-May-12 07:59N 30°05' W 093°20'0 0.0
2018-May-12 07:29N 30°05' W 093°20'0 0.0
2018-May-12 06:59N 30°05' W 093°20'0 0.0
2018-May-12 06:30N 30°05' W 093°20'0 0.0
2018-May-12 05:56N 30°05' W 093°20'0 0.0
2018-May-12 05:29N 30°05' W 093°20'0 0.0
2018-May-12 04:59N 30°05' W 093°20'0 0.0
2018-May-12 04:29N 30°05' W 093°20'0 0.0
2018-May-12 03:59N 30°05' W 093°20'0 0.0
2018-May-12 03:29N 30°05' W 093°20'0 0.0
2018-May-12 02:59N 30°05' W 093°20'0 0.0
2018-May-12 02:29N 30°05' W 093°20'0 0.0
2018-May-12 01:59N 30°05' W 093°20'0 0.0
2018-May-12 01:29N 30°05' W 093°20'0 0.0
2018-May-12 00:56N 30°05' W 093°20'0 0.0
2018-May-12 00:26N 30°05' W 093°20'0 0.0
2018-May-11 23:59N 30°05' W 093°20'1 3.0
2018-May-11 23:30N 30°06' W 093°19'0 0.5
2018-May-11 23:00N 30°06' W 093°18'0 0.0
2018-May-11 22:30N 30°06' W 093°18'0 0.0
2018-May-11 22:00N 30°06' W 093°18'1 1.8
2018-May-11 21:30N 30°06' W 093°19'  

Dump ship's entire track history